Observations for Trim Market St
| Time | AQI | Temp °C | Hum % | Pres Pa | CO μg/m³ | H₂S μg/m³ | NO μg/m³ | NO₂ μg/m³ | O₃ μg/m³ | SO₂ μg/m³ | PM1 μg/m³ | PM2.5 μg/m³ | PM10 μg/m³ |
|---|---|---|---|---|---|---|---|---|---|---|---|---|---|
| Sunday 16 August 2026 | |||||||||||||
| 00:36 | 2 | 16 | 61 | 57,901 | 0.71 | 0 | 1.14 | 6.6 | 54.66 | 0 | 2.14 | 3.47 | 4.81 |
| 00:35 | 2 | 16 | 61 | 57,903 | 0.64 | 0 | 1.11 | 8 | 56.01 | 0 | 1.43 | 2.97 | 4.13 |
| 00:34 | 2 | 16 | 61 | 57,903 | 0.61 | 0 | 1.09 | 7.78 | 55.47 | 0 | 2.14 | 3.97 | 5.49 |
| 00:33 | 2 | 16 | 61 | 57,901 | 0.65 | 0 | 1.09 | 7.19 | 53.42 | 0 | 2.14 | 3.97 | 5.49 |
| 00:32 | 3 | 16 | 61 | 57,903 | 0.81 | 0 | 1.12 | 8.46 | 55.12 | 0 | 1.43 | 3.97 | 5.49 |
| 00:31 | 3 | 16 | 61 | 57,905 | 0.62 | 0 | 1.19 | 7.89 | 51.53 | 0 | 1.43 | 2.97 | 4.13 |
| 00:24 | 3 | 16.1 | 61 | 57,917 | 0.13 | 0 | 1.1 | 10.49 | 53.21 | 0 | 0.71 | 2.99 | 4.8 |
| 00:23 | 3 | 16 | 61 | 57,921 | 0.14 | 0 | 1.08 | 12.59 | 56.74 | 0 | 2.14 | 4 | 5.48 |
| 00:21 | 3 | 16.1 | 60 | 57,925 | 0.14 | 0 | 1.06 | 7.82 | 53.47 | 0 | 2.85 | 4.5 | 6.85 |
| 00:17 | 3 | 16.2 | 60 | 57,932 | 0.13 | 0 | 1.06 | 7.9 | 52.01 | 0 | 2.14 | 4.51 | 6.16 |
| 00:12 | 3 | 16.3 | 60 | 57,940 | 0.1 | 0 | 1.06 | 5.48 | 57.73 | 0 | 0.71 | 2.52 | 3.41 |
| 00:11 | 3 | 16.3 | 60 | 57,942 | 0.1 | 0 | 1.05 | 10.19 | 61.31 | 0 | 0.71 | 3.03 | 4.09 |
| 00:10 | 3 | 16.3 | 60 | 57,946 | 0.11 | 0 | 1.05 | 10.67 | 64.9 | 0 | 0.71 | 2.54 | 3.4 |
| 00:09 | 3 | 16.3 | 60 | 57,946 | 0.17 | 0 | 1.04 | 11.82 | 56.34 | 0 | 1.43 | 3.55 | 4.77 |
| 00:08 | 3 | 16.4 | 60 | 57,948 | 0.17 | 0 | 1.05 | 7.37 | 54.17 | 0 | 0.71 | 3.05 | 4.08 |
| 00:07 | 3 | 16.4 | 60 | 57,950 | 0.23 | 0 | 1.05 | 9.53 | 59.97 | 0 | 0 | 2.55 | 3.39 |
| 00:06 | 3 | 16.4 | 59 | 57,952 | 0.32 | 0 | 1.05 | 7.59 | 53.34 | 0 | 1.43 | 4.05 | 6.15 |
| 00:05 | 3 | 16.4 | 59 | 57,952 | 0.46 | 0 | 1.05 | 7 | 58.05 | 0 | 0.71 | 3.05 | 4.77 |
| 00:04 | 3 | 16.5 | 59 | 57,952 | 0.66 | 0 | 1.05 | 9.01 | 55.26 | 0 | 1.43 | 3.05 | 4.08 |
| 00:03 | 3 | 16.5 | 59 | 57,952 | 0.71 | 0 | 1.05 | 7.1 | 56.22 | 0 | 1.43 | 3.05 | 4.08 |